This is the latest recevied weather packets stored in our database for station/object W5HKR. If no packets are shown the sender has not sent any weather packets the latest 10 day(s).
| Time | Temp. | Humidity | Pressure | Rain* | Wind** | Luminosity | Snow |
|---|---|---|---|---|---|---|---|
| 1778090306 | 27.78° C | 77% | 982.4 hPa | 0 mm | - | - | - |
| 1778090005 | 18.33° C | 91% | 990.6 hPa | 0 mm | - | - | - |
| 1778089915 | 18.33° C | 91% | 990.6 hPa | 0 mm | - | - | - |
| 1778089705 | 18.33° C | 91% | 990.6 hPa | 0 mm | - | - | - |
| 1778089404 | 18.33° C | 91% | 990.6 hPa | 0 mm | - | - | - |
| 1778089105 | 27.78° C | 79% | 982.4 hPa | 0 mm | - | - | - |
| 1778088835 | 27.22° C | 78% | 982.4 hPa | 0 mm | - | - | - |
| 1778088803 | 27.22° C | 79% | 982.6 hPa | 0 mm | - | - | - |
| 1778088505 | 18.33° C | 91% | 990.6 hPa | 0 mm | - | - | - |
| 1778088205 | 27.22° C | 79% | 983 hPa | 0 mm | - | - | - |
| 1778087904 | 18.33° C | 91% | 990.6 hPa | 0 mm | - | - | - |
| 1778087755 | 27.22° C | 80% | 982.7 hPa | 0 mm | - | - | - |
| 1778087605 | 18.33° C | 91% | 990.6 hPa | 0 mm | - | - | - |
| 1778087305 | 26.67° C | 81% | 983 hPa | 0 mm | - | - | - |
| 1778087003 | 26.67° C | 81% | 982.7 hPa | 0 mm | - | - | - |
| 1778086675 | 26.67° C | 83% | 982.3 hPa | 0 mm | - | - | - |
| 1778086405 | 18.33° C | 91% | 990.6 hPa | 0 mm | - | - | - |
| 1778086106 | 18.33° C | 91% | 990.6 hPa | 0 mm | - | - | - |
| 1778085805 | 26.11° C | 83% | 982.7 hPa | 0 mm | - | - | - |
| 1778085595 | 26.11° C | 84% | 982.7 hPa | 0 mm | - | - | - |
| 1778085505 | 26.11° C | 85% | 982.5 hPa | 0 mm | - | - | - |
| 1778085205 | 18.33° C | 91% | 990.6 hPa | 0 mm | - | - | - |
| 1778084904 | 25.56° C | 84% | 983.1 hPa | 0 mm | - | - | - |
| 1778084606 | 25.56° C | 85% | 982.9 hPa | 0 mm | - | - | - |
| 1778084515 | 25.56° C | 85% | 982.7 hPa | 0 mm | - | - | - |
* Rain latest hour (hover to see other rain measurements)
** Current wind speed in m/s (hover to see current wind gust speed)